PWSweather.com
Personal Weather Stations
Station Observations
WATERF01
WaterfordIE

WaterfordIE

Lat: 52.2412507, Lon: -7.1414691

Elevation: 65

Station Type: Davis Vantage Vue

www.waterfordweather.com

High Low Average
Temperature 45.3°F7.4°C 37.2°F2.9°C 42.1°F5.6°C
Dew Point 40.4°F4.7°C 35.6°F2.0°C 38.5°F3.6°C
Winds 17.3 mph 27.8 kmh Calm Calm 10.0 mph NW16.1 kmh NW
Wind Gusts 29.9 mph48.1 kmh 4.6 mph7.4 kmh 15.0 mph24.1 kmh
Humidity 94% 79% 87%
Pressure 30.09 in1019.0 mb 29.42 in996.3 mb -
Precipitation 0.00 in0.0 mm - -
Hour Temp Dew Point Humidity Winds Wind Gusts Pressure Precip Precip Rate Daily Precip Total
12:00 AM 41.8°F5.4°C 39.0°F3.9°C 90% 10.4 mph NW16.7 kmh NW 19.6 mph31.5 kmh 29.42 in996.3 mb - 0.00 in0.0 mm 0.00 in0.0 mm
12:10 AM 42.0°F5.6°C 39.3°F4.1°C 90% 11.5 mph NW18.5 kmh NW 19.6 mph31.5 kmh 29.42 in996.3 mb - 0.00 in0.0 mm 0.00 in0.0 mm
12:20 AM 41.9°F5.5°C 39.2°F4.0°C 90% 11.5 mph NW18.5 kmh NW 16.1 mph25.9 kmh 29.43 in996.6 mb - 0.00 in0.0 mm 0.00 in0.0 mm
12:30 AM 41.8°F5.4°C 39.1°F3.9°C 90% 10.4 mph NW16.7 kmh NW 15.0 mph24.1 kmh 29.44 in997.0 mb - 0.00 in0.0 mm 0.00 in0.0 mm
12:40 AM 41.7°F5.4°C 39.0°F3.9°C 90% 12.7 mph NW20.4 kmh NW 19.6 mph31.5 kmh 29.44 in997.0 mb - 0.00 in0.0 mm 0.00 in0.0 mm
12:50 AM 41.8°F5.4°C 39.1°F3.9°C 90% 12.7 mph NW20.4 kmh NW 21.9 mph35.2 kmh 29.45 in997.3 mb - 0.00 in0.0 mm 0.00 in0.0 mm
01:00 AM 42.1°F5.6°C 39.1°F3.9°C 89% 12.7 mph NW20.4 kmh NW 19.6 mph31.5 kmh 29.45 in997.3 mb - 0.00 in0.0 mm 0.00 in0.0 mm
01:10 AM 42.1°F5.6°C 39.1°F3.9°C 89% 9.2 mph NW14.8 kmh NW 15.0 mph24.1 kmh 29.45 in997.3 mb - 0.00 in0.0 mm 0.00 in0.0 mm
01:20 AM 41.9°F5.5°C 38.9°F3.8°C 89% 11.5 mph NW18.5 kmh NW 16.1 mph25.9 kmh 29.46 in997.6 mb - 0.00 in0.0 mm 0.00 in0.0 mm
01:30 AM 41.9°F5.5°C 38.9°F3.8°C 89% 10.4 mph NW16.7 kmh NW 18.4 mph29.6 kmh 29.46 in997.6 mb - 0.00 in0.0 mm 0.00 in0.0 mm
01:40 AM 41.8°F5.4°C 38.8°F3.8°C 89% 8.1 mph NW13.0 kmh NW 11.5 mph18.5 kmh 29.46 in997.6 mb - 0.00 in0.0 mm 0.00 in0.0 mm
01:50 AM 42.0°F5.6°C 39.0°F3.9°C 89% 9.2 mph NW14.8 kmh NW 12.7 mph20.4 kmh 29.47 in998.0 mb - 0.00 in0.0 mm 0.00 in0.0 mm
02:00 AM 42.0°F5.6°C 39.0°F3.9°C 89% 8.1 mph NW13.0 kmh NW 19.6 mph31.5 kmh 29.48 in998.3 mb - 0.00 in0.0 mm 0.00 in0.0 mm
02:10 AM 42.0°F5.6°C 39.0°F3.9°C 89% 8.1 mph NW13.0 kmh NW 13.8 mph22.2 kmh 29.48 in998.3 mb - 0.00 in0.0 mm 0.00 in0.0 mm
02:20 AM 42.0°F5.6°C 39.0°F3.9°C 89% 10.4 mph NW16.7 kmh NW 15.0 mph24.1 kmh 29.49 in998.6 mb - 0.00 in0.0 mm 0.00 in0.0 mm
02:30 AM 42.0°F5.6°C 39.0°F3.9°C 89% 9.2 mph NW14.8 kmh NW 16.1 mph25.9 kmh 29.50 in999.0 mb - 0.00 in0.0 mm 0.00 in0.0 mm
02:40 AM 42.6°F5.9°C 39.6°F4.2°C 89% 15.0 mph NW24.1 kmh NW 25.3 mph40.7 kmh 29.50 in999.0 mb - 0.00 in0.0 mm 0.00 in0.0 mm
02:50 AM 43.2°F6.2°C 39.9°F4.4°C 88% 11.5 mph NW18.5 kmh NW 13.8 mph22.2 kmh 29.51 in999.3 mb - 0.00 in0.0 mm 0.00 in0.0 mm
03:00 AM 43.7°F6.5°C 40.1°F4.5°C 87% 13.8 mph NW22.2 kmh NW 21.9 mph35.2 kmh 29.52 in999.7 mb - 0.00 in0.0 mm 0.00 in0.0 mm
03:10 AM 43.9°F6.6°C 40.3°F4.6°C 87% 10.4 mph NW16.7 kmh NW 13.8 mph22.2 kmh 29.52 in999.7 mb - 0.00 in0.0 mm 0.00 in0.0 mm
03:20 AM 44.1°F6.7°C 40.2°F4.6°C 86% 16.1 mph NW25.9 kmh NW 21.9 mph35.2 kmh 29.52 in999.7 mb - 0.00 in0.0 mm 0.00 in0.0 mm
03:30 AM 44.2°F6.8°C 40.3°F4.6°C 86% 17.3 mph NW27.8 kmh NW 29.9 mph48.1 kmh 29.53 in1000.0 mb - 0.00 in0.0 mm 0.00 in0.0 mm
03:40 AM 44.0°F6.7°C 40.4°F4.7°C 87% 12.7 mph NW20.4 kmh NW 20.7 mph33.3 kmh 29.53 in1000.0 mb - 0.00 in0.0 mm 0.00 in0.0 mm
03:50 AM 43.9°F6.6°C 40.3°F4.6°C 87% 15.0 mph NW24.1 kmh NW 21.9 mph35.2 kmh 29.54 in1000.3 mb - 0.00 in0.0 mm 0.00 in0.0 mm
04:00 AM 43.7°F6.5°C 40.1°F4.5°C 87% 15.0 mph NW24.1 kmh NW 23.0 mph37.0 kmh 29.54 in1000.3 mb - 0.00 in0.0 mm 0.00 in0.0 mm
04:10 AM 43.6°F6.4°C 40.0°F4.4°C 87% 15.0 mph NW24.1 kmh NW 25.3 mph40.7 kmh 29.55 in1000.7 mb - 0.00 in0.0 mm 0.00 in0.0 mm
04:20 AM 43.5°F6.4°C 39.9°F4.4°C 87% 11.5 mph NW18.5 kmh NW 21.9 mph35.2 kmh 29.55 in1000.7 mb - 0.00 in0.0 mm 0.00 in0.0 mm
04:30 AM 43.5°F6.4°C 40.2°F4.6°C 88% 13.8 mph NW22.2 kmh NW 19.6 mph31.5 kmh 29.56 in1001.0 mb - 0.00 in0.0 mm 0.00 in0.0 mm
04:40 AM 43.9°F6.6°C 40.3°F4.6°C 87% 16.1 mph NW25.9 kmh NW 21.9 mph35.2 kmh 29.56 in1001.0 mb - 0.00 in0.0 mm 0.00 in0.0 mm
04:50 AM 44.0°F6.7°C 40.4°F4.7°C 87% 12.7 mph NW20.4 kmh NW 21.9 mph35.2 kmh 29.57 in1001.4 mb - 0.00 in0.0 mm 0.00 in0.0 mm
05:00 AM 43.9°F6.6°C 40.3°F4.6°C 87% 16.1 mph NW25.9 kmh NW 29.9 mph48.1 kmh 29.57 in1001.4 mb - 0.00 in0.0 mm 0.00 in0.0 mm
05:10 AM 44.0°F6.7°C 40.4°F4.7°C 87% 12.7 mph NW20.4 kmh NW 16.1 mph25.9 kmh 29.59 in1002.0 mb - 0.00 in0.0 mm 0.00 in0.0 mm
05:20 AM 43.9°F6.6°C 40.3°F4.6°C 87% 12.7 mph NW20.4 kmh NW 25.3 mph40.7 kmh 29.59 in1002.0 mb - 0.00 in0.0 mm 0.00 in0.0 mm
05:30 AM 43.7°F6.5°C 40.1°F4.5°C 87% 11.5 mph NW18.5 kmh NW 21.9 mph35.2 kmh 29.60 in1002.4 mb - 0.00 in0.0 mm 0.00 in0.0 mm
05:40 AM 43.6°F6.4°C 40.0°F4.4°C 87% 12.7 mph NW20.4 kmh NW 20.7 mph33.3 kmh 29.61 in1002.7 mb - 0.00 in0.0 mm 0.00 in0.0 mm
05:50 AM 43.4°F6.3°C 40.1°F4.5°C 88% 11.5 mph NW18.5 kmh NW 19.6 mph31.5 kmh 29.61 in1002.7 mb - 0.00 in0.0 mm 0.00 in0.0 mm
06:00 AM 43.3°F6.3°C 40.0°F4.4°C 88% 12.7 mph NW20.4 kmh NW 19.6 mph31.5 kmh 29.62 in1003.0 mb - 0.00 in0.0 mm 0.00 in0.0 mm
06:10 AM 43.2°F6.2°C 39.9°F4.4°C 88% 13.8 mph NW22.2 kmh NW 21.9 mph35.2 kmh 29.62 in1003.0 mb - 0.00 in0.0 mm 0.00 in0.0 mm
06:20 AM 43.1°F6.2°C 39.8°F4.3°C 88% 11.5 mph NW18.5 kmh NW 16.1 mph25.9 kmh 29.63 in1003.4 mb - 0.00 in0.0 mm 0.00 in0.0 mm
06:30 AM 43.2°F6.2°C 39.9°F4.4°C 88% 10.4 mph NW16.7 kmh NW 19.6 mph31.5 kmh 29.63 in1003.4 mb - 0.00 in0.0 mm 0.00 in0.0 mm
06:40 AM 43.3°F6.3°C 40.0°F4.4°C 88% 13.8 mph NW22.2 kmh NW 19.6 mph31.5 kmh 29.64 in1003.7 mb - 0.00 in0.0 mm 0.00 in0.0 mm
06:50 AM 43.4°F6.3°C 40.1°F4.5°C 88% 12.7 mph NW20.4 kmh NW 19.6 mph31.5 kmh 29.65 in1004.1 mb - 0.00 in0.0 mm 0.00 in0.0 mm
07:00 AM 43.2°F6.2°C 39.9°F4.4°C 88% 13.8 mph NW22.2 kmh NW 23.0 mph37.0 kmh 29.65 in1004.1 mb - 0.00 in0.0 mm 0.00 in0.0 mm
07:10 AM 43.0°F6.1°C 39.7°F4.3°C 88% 13.8 mph NW22.2 kmh NW 21.9 mph35.2 kmh 29.66 in1004.4 mb - 0.00 in0.0 mm 0.00 in0.0 mm
07:20 AM 42.8°F6.0°C 39.5°F4.2°C 88% 8.1 mph NW13.0 kmh NW 13.8 mph22.2 kmh 29.67 in1004.7 mb - 0.00 in0.0 mm 0.00 in0.0 mm
07:30 AM 42.6°F5.9°C 39.3°F4.1°C 88% 9.2 mph NW14.8 kmh NW 16.1 mph25.9 kmh 29.68 in1005.1 mb - 0.00 in0.0 mm 0.00 in0.0 mm
07:40 AM 42.5°F5.8°C 39.5°F4.2°C 89% 10.4 mph NW16.7 kmh NW 15.0 mph24.1 kmh 29.68 in1005.1 mb - 0.00 in0.0 mm 0.00 in0.0 mm
07:50 AM 42.4°F5.8°C 39.4°F4.1°C 89% 10.4 mph NW16.7 kmh NW 15.0 mph24.1 kmh 29.68 in1005.1 mb - 0.00 in0.0 mm 0.00 in0.0 mm
08:00 AM 42.3°F5.7°C 39.0°F3.9°C 88% 8.1 mph NW13.0 kmh NW 11.5 mph18.5 kmh 29.69 in1005.4 mb - 0.00 in0.0 mm 0.00 in0.0 mm
08:10 AM 42.2°F5.7°C 38.9°F3.8°C 88% 8.1 mph NW13.0 kmh NW 11.5 mph18.5 kmh 29.70 in1005.8 mb - 0.00 in0.0 mm 0.00 in0.0 mm
08:20 AM 42.2°F5.7°C 38.6°F3.7°C 87% 8.1 mph NW13.0 kmh NW 11.5 mph18.5 kmh 29.70 in1005.8 mb - 0.00 in0.0 mm 0.00 in0.0 mm
08:30 AM 42.2°F5.7°C 38.6°F3.7°C 87% 9.2 mph NW14.8 kmh NW 16.1 mph25.9 kmh 29.71 in1006.1 mb - 0.00 in0.0 mm 0.00 in0.0 mm
08:40 AM 42.4°F5.8°C 38.8°F3.8°C 87% 9.2 mph NW14.8 kmh NW 13.8 mph22.2 kmh 29.72 in1006.4 mb - 0.00 in0.0 mm 0.00 in0.0 mm
08:50 AM 42.3°F5.7°C 38.7°F3.7°C 87% 6.9 mph NW11.1 kmh NW 13.8 mph22.2 kmh 29.73 in1006.8 mb - 0.00 in0.0 mm 0.00 in0.0 mm
09:00 AM 42.4°F5.8°C 38.8°F3.8°C 87% 8.1 mph NW13.0 kmh NW 9.2 mph14.8 kmh 29.74 in1007.1 mb - 0.00 in0.0 mm 0.00 in0.0 mm
09:10 AM 42.5°F5.8°C 38.6°F3.7°C 86% 8.1 mph NNW13.0 kmh NNW 13.8 mph22.2 kmh 29.74 in1007.1 mb - 0.00 in0.0 mm 0.00 in0.0 mm
09:20 AM 42.6°F5.9°C 38.4°F3.6°C 85% 8.1 mph NW13.0 kmh NW 18.4 mph29.6 kmh 29.75 in1007.5 mb - 0.00 in0.0 mm 0.00 in0.0 mm
09:30 AM 42.7°F5.9°C 38.5°F3.6°C 85% 8.1 mph NW13.0 kmh NW 13.8 mph22.2 kmh 29.76 in1007.8 mb - 0.00 in0.0 mm 0.00 in0.0 mm
09:40 AM 42.9°F6.1°C 38.4°F3.6°C 84% 8.1 mph NW13.0 kmh NW 11.5 mph18.5 kmh 29.76 in1007.8 mb - 0.00 in0.0 mm 0.00 in0.0 mm
09:50 AM 43.3°F6.3°C 38.2°F3.4°C 82% 9.2 mph NW14.8 kmh NW 13.8 mph22.2 kmh 29.77 in1008.1 mb - 0.00 in0.0 mm 0.00 in0.0 mm
10:00 AM 43.5°F6.4°C 38.1°F3.4°C 81% 11.5 mph NW18.5 kmh NW 13.8 mph22.2 kmh 29.78 in1008.5 mb - 0.00 in0.0 mm 0.00 in0.0 mm
10:10 AM 43.7°F6.5°C 38.3°F3.5°C 81% 10.4 mph NW16.7 kmh NW 19.6 mph31.5 kmh 29.79 in1008.8 mb - 0.00 in0.0 mm 0.00 in0.0 mm
10:20 AM 43.8°F6.6°C 38.0°F3.3°C 80% 10.4 mph NW16.7 kmh NW 16.1 mph25.9 kmh 29.79 in1008.8 mb - 0.00 in0.0 mm 0.00 in0.0 mm
10:30 AM 43.7°F6.5°C 37.9°F3.3°C 80% 16.1 mph NW25.9 kmh NW 21.9 mph35.2 kmh 29.79 in1008.8 mb - 0.00 in0.0 mm 0.00 in0.0 mm
10:40 AM 43.7°F6.5°C 37.9°F3.3°C 80% 16.1 mph NW25.9 kmh NW 28.8 mph46.3 kmh 29.79 in1008.8 mb - 0.00 in0.0 mm 0.00 in0.0 mm
10:50 AM 43.9°F6.6°C 38.4°F3.6°C 81% 15.0 mph NW24.1 kmh NW 23.0 mph37.0 kmh 29.80 in1009.1 mb - 0.00 in0.0 mm 0.00 in0.0 mm
11:00 AM 43.9°F6.6°C 38.4°F3.6°C 81% 13.8 mph NW22.2 kmh NW 19.6 mph31.5 kmh 29.80 in1009.1 mb - 0.00 in0.0 mm 0.00 in0.0 mm
11:10 AM 44.0°F6.7°C 38.5°F3.6°C 81% 10.4 mph NW16.7 kmh NW 16.1 mph25.9 kmh 29.81 in1009.5 mb - 0.00 in0.0 mm 0.00 in0.0 mm
11:20 AM 44.1°F6.7°C 38.6°F3.7°C 81% 11.5 mph NW18.5 kmh NW 21.9 mph35.2 kmh 29.82 in1009.8 mb - 0.00 in0.0 mm 0.00 in0.0 mm
11:30 AM 44.2°F6.8°C 38.7°F3.7°C 81% 9.2 mph NW14.8 kmh NW 19.6 mph31.5 kmh 29.82 in1009.8 mb - 0.00 in0.0 mm 0.00 in0.0 mm
11:40 AM 44.3°F6.8°C 38.9°F3.8°C 81% 13.8 mph NW22.2 kmh NW 21.9 mph35.2 kmh 29.83 in1010.2 mb - 0.00 in0.0 mm 0.00 in0.0 mm
11:50 AM 44.5°F6.9°C 39.0°F3.9°C 81% 12.7 mph NW20.4 kmh NW 18.4 mph29.6 kmh 29.83 in1010.2 mb - 0.00 in0.0 mm 0.00 in0.0 mm
12:00 PM 44.7°F7.1°C 38.9°F3.8°C 80% 11.5 mph NW18.5 kmh NW 12.7 mph20.4 kmh 29.84 in1010.5 mb - 0.00 in0.0 mm 0.00 in0.0 mm
12:10 PM 44.6°F7.0°C 38.8°F3.8°C 80% 12.7 mph NNW20.4 kmh NNW 20.7 mph33.3 kmh 29.84 in1010.5 mb - 0.00 in0.0 mm 0.00 in0.0 mm
12:20 PM 44.7°F7.1°C 38.6°F3.7°C 79% 9.2 mph NW14.8 kmh NW 13.8 mph22.2 kmh 29.84 in1010.5 mb - 0.00 in0.0 mm 0.00 in0.0 mm
12:30 PM 44.9°F7.2°C 38.8°F3.8°C 79% 15.0 mph NW24.1 kmh NW 25.3 mph40.7 kmh 29.84 in1010.5 mb - 0.00 in0.0 mm 0.00 in0.0 mm
12:40 PM 45.0°F7.2°C 39.2°F4.0°C 80% 10.4 mph NW16.7 kmh NW 16.1 mph25.9 kmh 29.84 in1010.5 mb - 0.00 in0.0 mm 0.00 in0.0 mm
12:50 PM 45.1°F7.3°C 39.0°F3.9°C 79% 11.5 mph NW18.5 kmh NW 13.8 mph22.2 kmh 29.85 in1010.8 mb - 0.00 in0.0 mm 0.00 in0.0 mm
01:00 PM 45.3°F7.4°C 39.1°F3.9°C 79% 11.5 mph NNW18.5 kmh NNW 15.0 mph24.1 kmh 29.86 in1011.2 mb - 0.00 in0.0 mm 0.00 in0.0 mm
01:10 PM 45.3°F7.4°C 39.5°F4.2°C 80% 10.4 mph NW16.7 kmh NW 15.0 mph24.1 kmh 29.86 in1011.2 mb - 0.00 in0.0 mm 0.00 in0.0 mm
01:20 PM 45.2°F7.3°C 39.4°F4.1°C 80% 12.7 mph NW20.4 kmh NW 20.7 mph33.3 kmh 29.86 in1011.2 mb - 0.00 in0.0 mm 0.00 in0.0 mm
01:30 PM 45.1°F7.3°C 39.3°F4.1°C 80% 11.5 mph NW18.5 kmh NW 16.1 mph25.9 kmh 29.87 in1011.5 mb - 0.00 in0.0 mm 0.00 in0.0 mm
01:40 PM 45.1°F7.3°C 39.0°F3.9°C 79% 12.7 mph NW20.4 kmh NW 15.0 mph24.1 kmh 29.87 in1011.5 mb - 0.00 in0.0 mm 0.00 in0.0 mm
01:50 PM 45.2°F7.3°C 39.4°F4.1°C 80% 11.5 mph NW18.5 kmh NW 13.8 mph22.2 kmh 29.88 in1011.9 mb - 0.00 in0.0 mm 0.00 in0.0 mm
02:00 PM 45.1°F7.3°C 39.0°F3.9°C 79% 10.4 mph NW16.7 kmh NW 15.0 mph24.1 kmh 29.88 in1011.9 mb - 0.00 in0.0 mm 0.00 in0.0 mm
02:10 PM 45.1°F7.3°C 39.0°F3.9°C 79% 10.4 mph NW16.7 kmh NW 13.8 mph22.2 kmh 29.88 in1011.9 mb - 0.00 in0.0 mm 0.00 in0.0 mm
02:20 PM 45.1°F7.3°C 39.3°F4.1°C 80% 10.4 mph NW16.7 kmh NW 16.1 mph25.9 kmh 29.88 in1011.9 mb - 0.00 in0.0 mm 0.00 in0.0 mm
02:30 PM 45.0°F7.2°C 38.8°F3.8°C 79% 13.8 mph NW22.2 kmh NW 19.6 mph31.5 kmh 29.88 in1011.9 mb - 0.00 in0.0 mm 0.00 in0.0 mm
02:40 PM 44.9°F7.2°C 38.8°F3.8°C 79% 11.5 mph NW18.5 kmh NW 18.4 mph29.6 kmh 29.89 in1012.2 mb - 0.00 in0.0 mm 0.00 in0.0 mm
02:50 PM 44.9°F7.2°C 39.1°F3.9°C 80% 9.2 mph NW14.8 kmh NW 18.4 mph29.6 kmh 29.90 in1012.5 mb - 0.00 in0.0 mm 0.00 in0.0 mm
03:00 PM 44.7°F7.1°C 39.2°F4.0°C 81% 8.1 mph NW13.0 kmh NW 11.5 mph18.5 kmh 29.91 in1012.9 mb - 0.00 in0.0 mm 0.00 in0.0 mm
03:10 PM 44.4°F6.9°C 39.2°F4.0°C 82% 10.4 mph NW16.7 kmh NW 19.6 mph31.5 kmh 29.91 in1012.9 mb - 0.00 in0.0 mm 0.00 in0.0 mm
03:20 PM 44.2°F6.8°C 39.4°F4.1°C 83% 8.1 mph NW13.0 kmh NW 9.2 mph14.8 kmh 29.91 in1012.9 mb - 0.00 in0.0 mm 0.00 in0.0 mm
03:30 PM 43.9°F6.6°C 39.1°F3.9°C 83% 9.2 mph NW14.8 kmh NW 11.5 mph18.5 kmh 29.92 in1013.2 mb - 0.00 in0.0 mm 0.00 in0.0 mm
03:40 PM 43.8°F6.6°C 39.3°F4.1°C 84% 6.9 mph NW11.1 kmh NW 12.7 mph20.4 kmh 29.93 in1013.5 mb - 0.00 in0.0 mm 0.00 in0.0 mm
03:50 PM 43.5°F6.4°C 39.3°F4.1°C 85% 5.8 mph NW9.3 kmh NW 13.8 mph22.2 kmh 29.93 in1013.5 mb - 0.00 in0.0 mm 0.00 in0.0 mm
04:00 PM 43.1°F6.2°C 38.9°F3.8°C 85% 4.6 mph NW7.4 kmh NW 6.9 mph11.1 kmh 29.94 in1013.9 mb - 0.00 in0.0 mm 0.00 in0.0 mm
04:10 PM 42.9°F6.1°C 39.0°F3.9°C 86% 5.8 mph NW9.3 kmh NW 11.5 mph18.5 kmh 29.94 in1013.9 mb - 0.00 in0.0 mm 0.00 in0.0 mm
04:20 PM 42.5°F5.8°C 38.6°F3.7°C 86% 2.3 mph NW3.7 kmh NW 6.9 mph11.1 kmh 29.94 in1013.9 mb - 0.00 in0.0 mm 0.00 in0.0 mm
04:30 PM 42.3°F5.7°C 38.7°F3.7°C 87% 3.5 mph NW5.6 kmh NW 5.8 mph9.3 kmh 29.95 in1014.2 mb - 0.00 in0.0 mm 0.00 in0.0 mm
04:40 PM 42.0°F5.6°C 38.4°F3.6°C 87% 5.8 mph NW9.3 kmh NW 11.5 mph18.5 kmh 29.95 in1014.2 mb - 0.00 in0.0 mm 0.00 in0.0 mm
04:50 PM 41.9°F5.5°C 38.6°F3.7°C 88% 5.8 mph NW9.3 kmh NW 6.9 mph11.1 kmh 29.96 in1014.6 mb - 0.00 in0.0 mm 0.00 in0.0 mm
05:00 PM 41.6°F5.3°C 38.3°F3.5°C 88% 5.8 mph NW9.3 kmh NW 11.5 mph18.5 kmh 29.96 in1014.6 mb - 0.00 in0.0 mm 0.00 in0.0 mm
05:10 PM 41.3°F5.2°C 38.3°F3.5°C 89% 6.9 mph NW11.1 kmh NW 13.8 mph22.2 kmh 29.97 in1014.9 mb - 0.00 in0.0 mm 0.00 in0.0 mm
05:20 PM 41.1°F5.1°C 38.4°F3.6°C 90% 5.8 mph NW9.3 kmh NW 8.1 mph13.0 kmh 29.97 in1014.9 mb - 0.00 in0.0 mm 0.00 in0.0 mm
05:30 PM 40.9°F4.9°C 38.2°F3.4°C 90% 4.6 mph NW7.4 kmh NW 6.9 mph11.1 kmh 29.98 in1015.2 mb - 0.00 in0.0 mm 0.00 in0.0 mm
05:40 PM 40.9°F4.9°C 38.2°F3.4°C 90% 6.9 mph NW11.1 kmh NW 9.2 mph14.8 kmh 29.98 in1015.2 mb - 0.00 in0.0 mm 0.00 in0.0 mm
05:50 PM 40.6°F4.8°C 38.2°F3.4°C 91% 6.9 mph WNW11.1 kmh WNW 11.5 mph18.5 kmh 29.98 in1015.2 mb - 0.00 in0.0 mm 0.00 in0.0 mm
06:00 PM 40.5°F4.7°C 38.1°F3.4°C 91% 6.9 mph NW11.1 kmh NW 11.5 mph18.5 kmh 29.99 in1015.6 mb - 0.00 in0.0 mm 0.00 in0.0 mm
06:10 PM 40.6°F4.8°C 38.2°F3.4°C 91% 5.8 mph NW9.3 kmh NW 11.5 mph18.5 kmh 29.99 in1015.6 mb - 0.00 in0.0 mm 0.00 in0.0 mm
06:20 PM 40.4°F4.7°C 38.0°F3.3°C 91% 5.8 mph NW9.3 kmh NW 9.2 mph14.8 kmh 29.99 in1015.6 mb - 0.00 in0.0 mm 0.00 in0.0 mm
06:30 PM 40.1°F4.5°C 37.7°F3.2°C 91% 5.8 mph NW9.3 kmh NW 8.1 mph13.0 kmh 30.00 in1015.9 mb - 0.00 in0.0 mm 0.00 in0.0 mm
06:40 PM 39.9°F4.4°C 37.5°F3.1°C 91% 6.9 mph NW11.1 kmh NW 9.2 mph14.8 kmh 30.00 in1015.9 mb - 0.00 in0.0 mm 0.00 in0.0 mm
06:50 PM 39.6°F4.2°C 37.5°F3.1°C 92% 6.9 mph NW11.1 kmh NW 11.5 mph18.5 kmh 30.01 in1016.3 mb - 0.00 in0.0 mm 0.00 in0.0 mm
07:00 PM 39.7°F4.3°C 37.6°F3.1°C 92% 9.2 mph NW14.8 kmh NW 12.7 mph20.4 kmh 30.01 in1016.3 mb - 0.00 in0.0 mm 0.00 in0.0 mm
07:10 PM 39.7°F4.3°C 37.6°F3.1°C 92% 5.8 mph NW9.3 kmh NW 11.5 mph18.5 kmh 30.02 in1016.6 mb - 0.00 in0.0 mm 0.00 in0.0 mm
07:20 PM 39.6°F4.2°C 37.5°F3.1°C 92% 8.1 mph NW13.0 kmh NW 11.5 mph18.5 kmh 30.03 in1016.9 mb - 0.00 in0.0 mm 0.00 in0.0 mm
07:30 PM 39.6°F4.2°C 37.5°F3.1°C 92% 8.1 mph NW13.0 kmh NW 11.5 mph18.5 kmh 30.03 in1016.9 mb - 0.00 in0.0 mm 0.00 in0.0 mm
07:40 PM 39.5°F4.2°C 37.4°F3.0°C 92% 6.9 mph NW11.1 kmh NW 9.2 mph14.8 kmh 30.03 in1016.9 mb - 0.00 in0.0 mm 0.00 in0.0 mm
07:50 PM 39.2°F4.0°C 37.1°F2.8°C 92% 4.6 mph NW7.4 kmh NW 8.1 mph13.0 kmh 30.04 in1017.3 mb - 0.00 in0.0 mm 0.00 in0.0 mm
08:00 PM 39.1°F3.9°C 37.0°F2.8°C 92% 6.9 mph NW11.1 kmh NW 8.1 mph13.0 kmh 30.04 in1017.3 mb - 0.00 in0.0 mm 0.00 in0.0 mm
08:10 PM 38.9°F3.8°C 37.0°F2.8°C 93% 5.8 mph NW9.3 kmh NW 11.5 mph18.5 kmh 30.04 in1017.3 mb - 0.00 in0.0 mm 0.00 in0.0 mm
08:20 PM 38.8°F3.8°C 36.9°F2.7°C 93% 5.8 mph NW9.3 kmh NW 8.1 mph13.0 kmh 30.04 in1017.3 mb - 0.00 in0.0 mm 0.00 in0.0 mm
08:30 PM 38.7°F3.7°C 36.9°F2.7°C 93% 6.9 mph NW11.1 kmh NW 11.5 mph18.5 kmh 30.05 in1017.6 mb - 0.00 in0.0 mm 0.00 in0.0 mm
08:40 PM 38.6°F3.7°C 36.7°F2.6°C 93% 8.1 mph NW13.0 kmh NW 12.7 mph20.4 kmh 30.05 in1017.6 mb - 0.00 in0.0 mm 0.00 in0.0 mm
08:50 PM 38.5°F3.6°C 36.7°F2.6°C 93% 6.9 mph NW11.1 kmh NW 11.5 mph18.5 kmh 30.05 in1017.6 mb - 0.00 in0.0 mm 0.00 in0.0 mm
09:00 PM 38.2°F3.4°C 36.4°F2.4°C 93% 6.9 mph NW11.1 kmh NW 13.8 mph22.2 kmh 30.05 in1017.6 mb - 0.00 in0.0 mm 0.00 in0.0 mm
09:10 PM 38.1°F3.4°C 36.3°F2.4°C 93% 4.6 mph NW7.4 kmh NW 9.2 mph14.8 kmh 30.05 in1017.6 mb - 0.00 in0.0 mm 0.00 in0.0 mm
09:20 PM 37.9°F3.3°C 36.3°F2.4°C 94% 5.8 mph NW9.3 kmh NW 8.1 mph13.0 kmh 30.06 in1017.9 mb - 0.00 in0.0 mm 0.00 in0.0 mm
09:30 PM 37.8°F3.2°C 36.2°F2.3°C 94% Calm Calm 4.6 mph7.4 kmh 30.06 in1017.9 mb - 0.00 in0.0 mm 0.00 in0.0 mm
09:40 PM 37.6°F3.1°C 36.0°F2.2°C 94% 2.3 mph NW3.7 kmh NW 4.6 mph7.4 kmh 30.06 in1017.9 mb - 0.00 in0.0 mm 0.00 in0.0 mm
09:50 PM 37.5°F3.1°C 35.9°F2.2°C 94% 4.6 mph NW7.4 kmh NW 8.1 mph13.0 kmh 30.06 in1017.9 mb - 0.00 in0.0 mm 0.00 in0.0 mm
10:00 PM 37.6°F3.1°C 36.0°F2.2°C 94% 4.6 mph NW7.4 kmh NW 9.2 mph14.8 kmh 30.06 in1017.9 mb - 0.00 in0.0 mm 0.00 in0.0 mm
10:10 PM 37.6°F3.1°C 36.0°F2.2°C 94% 4.6 mph NW7.4 kmh NW 8.1 mph13.0 kmh 30.07 in1018.3 mb - 0.00 in0.0 mm 0.00 in0.0 mm
10:20 PM 37.6°F3.1°C 36.0°F2.2°C 94% 6.9 mph NW11.1 kmh NW 9.2 mph14.8 kmh 30.07 in1018.3 mb - 0.00 in0.0 mm 0.00 in0.0 mm
10:30 PM 37.7°F3.2°C 36.1°F2.3°C 94% 4.6 mph NW7.4 kmh NW 8.1 mph13.0 kmh 30.07 in1018.3 mb - 0.00 in0.0 mm 0.00 in0.0 mm
10:40 PM 37.6°F3.1°C 36.0°F2.2°C 94% 5.8 mph NW9.3 kmh NW 11.5 mph18.5 kmh 30.07 in1018.3 mb - 0.00 in0.0 mm 0.00 in0.0 mm
10:50 PM 37.3°F2.9°C 35.8°F2.1°C 94% 6.9 mph NW11.1 kmh NW 11.5 mph18.5 kmh 30.07 in1018.3 mb - 0.00 in0.0 mm 0.00 in0.0 mm
11:00 PM 37.2°F2.9°C 35.6°F2.0°C 94% 5.8 mph NW9.3 kmh NW 11.5 mph18.5 kmh 30.07 in1018.3 mb - 0.00 in0.0 mm 0.00 in0.0 mm
11:10 PM 37.2°F2.9°C 35.6°F2.0°C 94% 6.9 mph NW11.1 kmh NW 11.5 mph18.5 kmh 30.07 in1018.3 mb - 0.00 in0.0 mm 0.00 in0.0 mm
11:20 PM 37.3°F2.9°C 35.7°F2.1°C 94% 8.1 mph NW13.0 kmh NW 11.5 mph18.5 kmh 30.08 in1018.6 mb - 0.00 in0.0 mm 0.00 in0.0 mm
11:30 PM 37.4°F3.0°C 35.8°F2.1°C 94% 5.8 mph NW9.3 kmh NW 9.2 mph14.8 kmh 30.08 in1018.6 mb - 0.00 in0.0 mm 0.00 in0.0 mm
11:40 PM 37.4°F3.0°C 35.8°F2.1°C 94% 8.1 mph NW13.0 kmh NW 11.5 mph18.5 kmh 30.09 in1019.0 mb - 0.00 in0.0 mm 0.00 in0.0 mm
11:50 PM 37.3°F2.9°C 35.7°F2.1°C 94% 5.8 mph NW9.3 kmh NW 8.1 mph13.0 kmh 30.09 in1019.0 mb - 0.00 in0.0 mm 0.00 in0.0 mm